Time;durP1;ratioP1;P1;durP2;ratioP2;P2;SDS_P1;SDS_P2;PMS_P1;PMS_P2;Temp;Humidity;BMP_temperature;BMP_pressure;BME280_temperature;BME280_humidity;BME280_pressure;Samples;Min_cycle;Max_cycle;Signal;HPM_P1;HPM_P2
2021/09/16 00:01:50;;;;;;;5.72;3.50;;;;;;;15.59;100.00;96081.97;4993467;28;20033;-83
2021/09/16 00:04:15;;;;;;;6.05;3.15;;;;;;;15.59;100.00;96087.28;5008589;28;20041;-83
2021/09/16 00:06:42;;;;;;;6.97;3.13;;;;;;;15.58;100.00;96081.16;5007045;28;20028;-83
2021/09/16 00:09:08;;;;;;;5.43;3.00;;;;;;;15.56;100.00;96080.56;4994526;28;20029;-83
2021/09/16 00:11:34;;;;;;;5.07;2.60;;;;;;;15.59;100.00;96074.84;5003410;28;20022;-83
2021/09/16 00:13:59;;;;;;;5.93;2.85;;;;;;;15.59;100.00;96068.72;5006017;28;20072;-83
2021/09/16 00:16:25;;;;;;;6.07;3.00;;;;;;;15.65;100.00;96082.03;5006680;28;20029;-83
2021/09/16 00:18:51;;;;;;;6.10;2.97;;;;;;;15.57;100.00;96082.19;4988769;28;20447;-83
2021/09/16 00:21:23;;;;;;;6.68;2.95;;;;;;;15.57;100.00;96093.59;5008664;28;20427;-83
2021/09/16 00:23:49;;;;;;;5.22;3.15;;;;;;;15.58;100.00;96091.75;5012246;28;20487;-83
2021/09/16 00:26:14;;;;;;;5.03;2.97;;;;;;;15.63;100.00;96102.63;5018185;28;20032;-84
2021/09/16 00:28:40;;;;;;;4.25;2.60;;;;;;;15.70;100.00;96100.84;5016358;28;20025;-83
2021/09/16 00:31:06;;;;;;;5.63;2.97;;;;;;;15.71;100.00;96099.03;5005076;28;20021;-83
2021/09/16 00:33:32;;;;;;;5.90;2.83;;;;;;;15.72;100.00;96090.03;5036948;28;20088;-83
2021/09/16 00:36:09;;;;;;;6.18;3.25;;;;;;;15.76;100.00;96089.47;5006745;28;20395;-83
2021/09/16 00:38:35;;;;;;;4.75;2.92;;;;;;;15.71;100.00;96086.56;5009727;28;20198;-83
2021/09/16 00:41:16;;;;;;;5.45;3.20;;;;;;;15.71;100.00;96091.06;4993795;28;20463;-83
2021/09/16 00:43:42;;;;;;;4.18;2.72;;;;;;;15.68;100.00;96094.09;5010869;28;20262;-82
2021/09/16 00:46:07;;;;;;;5.88;2.58;;;;;;;15.68;100.00;96094.91;5008850;28;20039;-83
2021/09/16 00:48:34;;;;;;;3.55;2.13;;;;;;;15.73;100.00;96100.47;5010191;28;20491;-83
2021/09/16 00:51:00;;;;;;;4.07;2.58;;;;;;;15.75;100.00;96087.81;4999170;28;20025;-83
2021/09/16 00:53:31;;;;;;;7.68;2.75;;;;;;;15.77;100.00;96093.75;4994018;28;20499;-82
2021/09/16 00:55:59;;;;;;;5.50;2.10;;;;;;;15.78;100.00;96094.56;5010513;28;20106;-83
2021/09/16 00:58:29;;;;;;;4.93;2.35;;;;;;;15.81;100.00;96090.72;5011401;28;20480;-83
2021/09/16 01:00:55;;;;;;;4.50;2.30;;;;;;;15.78;100.00;96084.78;5003875;28;20472;-83
2021/09/16 01:03:24;;;;;;;4.30;2.42;;;;;;;15.81;100.00;96085.41;5025616;28;20464;-83
2021/09/16 01:05:53;;;;;;;4.35;2.80;;;;;;;15.78;100.00;96087.44;5005894;28;20499;-83
2021/09/16 01:08:19;;;;;;;5.10;2.70;;;;;;;15.81;100.00;96090.72;5003266;28;20113;-83
2021/09/16 01:10:45;;;;;;;3.33;2.20;;;;;;;15.77;100.00;96091.09;4983172;28;20044;-84
2021/09/16 01:13:11;;;;;;;4.80;2.65;;;;;;;15.77;100.00;96085.81;5007551;28;20025;-83
2021/09/16 01:15:37;;;;;;;4.35;2.60;;;;;;;15.73;100.00;96078.44;5005044;28;20045;-84
2021/09/16 01:18:04;;;;;;;4.82;2.72;;;;;;;15.72;100.00;96087.41;4994316;28;20025;-83
2021/09/16 01:20:29;;;;;;;6.60;2.72;;;;;;;15.71;100.00;96091.88;4992523;28;20107;-84
2021/09/16 01:26:08;;;;;;;4.50;2.38;;;;;;;15.74;100.00;96091.50;5026221;28;20111;-83
2021/09/16 01:28:34;;;;;;;5.45;3.22;;;;;;;15.76;100.00;96088.63;5016176;28;20423;-83
2021/09/16 01:31:00;;;;;;;5.07;2.95;;;;;;;15.76;100.00;96081.53;5030590;28;20045;-83
2021/09/16 01:33:26;;;;;;;5.00;2.55;;;;;;;15.73;100.00;96081.91;4998536;28;20053;-83
2021/09/16 01:35:52;;;;;;;5.88;3.08;;;;;;;15.72;100.00;96080.25;4998236;28;20818;-83
2021/09/16 01:38:23;;;;;;;6.78;2.55;;;;;;;15.69;100.00;96079.81;4995538;28;20673;-84
2021/09/16 01:40:48;;;;;;;5.97;2.40;;;;;;;15.73;100.00;96079.25;5010873;28;20108;-83
2021/09/16 01:43:15;;;;;;;5.80;2.85;;;;;;;15.76;100.00;96076.22;5013107;28;20121;-83
2021/09/16 01:45:41;;;;;;;5.22;2.45;;;;;;;15.82;100.00;96077.25;5013265;28;20075;-82
2021/09/16 01:48:07;;;;;;;5.07;2.65;;;;;;;15.80;100.00;96071.34;5009553;28;20406;-82
2021/09/16 01:50:33;;;;;;;4.47;2.83;;;;;;;15.81;100.00;96070.31;5008388;28;20071;-83
2021/09/16 01:52:58;;;;;;;5.55;2.30;;;;;;;15.86;100.00;96077.69;5010305;28;20033;-83
2021/09/16 01:55:24;;;;;;;3.97;1.88;;;;;;;15.75;100.00;96071.91;5006979;28;20025;-83
2021/09/16 01:58:23;;;;;;;4.53;2.00;;;;;;;15.77;100.00;96067.25;5009842;28;20053;-83
2021/09/16 02:00:49;;;;;;;4.97;2.58;;;;;;;15.71;100.00;96059.25;4994252;28;20109;-83
2021/09/16 02:03:14;;;;;;;6.65;2.38;;;;;;;15.75;100.00;96055.19;5024063;28;20320;-82
2021/09/16 02:05:40;;;;;;;4.03;2.35;;;;;;;15.65;100.00;96054.69;5002162;28;20495;-83
2021/09/16 02:08:06;;;;;;;5.32;2.58;;;;;;;15.61;100.00;96053.44;4987885;28;20391;-83
2021/09/16 02:10:32;;;;;;;4.47;2.53;;;;;;;15.69;100.00;96062.13;5006736;28;20029;-82
2021/09/16 02:12:58;;;;;;;4.85;2.40;;;;;;;15.71;100.00;96054.75;5012355;28;20660;-83
2021/09/16 02:15:24;;;;;;;4.32;2.30;;;;;;;15.69;100.00;96050.66;5011178;28;20026;-83
2021/09/16 02:17:49;;;;;;;4.70;2.67;;;;;;;15.69;100.00;96048.84;5007203;28;20032;-83
2021/09/16 02:20:15;;;;;;;5.80;2.60;;;;;;;15.71;100.00;96052.13;5004117;28;20033;-83
2021/09/16 02:22:42;;;;;;;5.38;2.50;;;;;;;15.76;100.00;96043.56;4999158;28;20022;-83
2021/09/16 02:25:08;;;;;;;4.00;2.40;;;;;;;15.78;100.00;96038.88;5015763;28;20033;-83
2021/09/16 02:27:34;;;;;;;5.65;2.83;;;;;;;15.77;100.00;96043.38;5012951;28;20025;-83
2021/09/16 02:29:59;;;;;;;3.95;2.40;;;;;;;15.74;100.00;96043.78;4996530;28;20083;-83
2021/09/16 02:32:25;;;;;;;4.93;2.83;;;;;;;15.75;100.00;96040.09;5033211;28;20400;-83
2021/09/16 02:34:51;;;;;;;4.75;2.63;;;;;;;15.75;100.00;96056.00;5005324;28;20527;-83
2021/09/16 02:37:17;;;;;;;3.88;2.50;;;;;;;15.75;100.00;96049.88;5030689;28;20022;-83
2021/09/16 02:39:43;;;;;;;5.78;2.65;;;;;;;15.76;100.00;96046.22;5007803;28;20026;-83
2021/09/16 02:42:08;;;;;;;9.55;3.13;;;;;;;15.72;100.00;96045.78;5018186;28;20056;-82
2021/09/16 02:44:34;;;;;;;5.40;2.97;;;;;;;15.72;100.00;96045.78;5004418;28;20034;-83
2021/09/16 02:47:00;;;;;;;3.20;2.40;;;;;;;15.77;100.00;96046.03;5010434;28;20079;-83
2021/09/16 02:49:26;;;;;;;4.97;3.22;;;;;;;15.75;100.00;96050.69;5013207;28;20033;-83
2021/09/16 02:51:51;;;;;;;5.00;2.78;;;;;;;15.78;100.00;96041.53;4993813;28;20021;-83
2021/09/16 02:54:18;;;;;;;3.22;2.10;;;;;;;15.78;100.00;96047.66;5007507;28;20030;-83
2021/09/16 02:56:44;;;;;;;6.03;2.85;;;;;;;15.76;100.00;96047.06;4996769;28;20025;-83
2021/09/16 02:59:10;;;;;;;5.85;2.40;;;;;;;15.79;100.00;96048.47;5030231;28;20087;-83
2021/09/16 03:01:35;;;;;;;4.70;2.30;;;;;;;15.74;100.00;96051.72;4984845;28;20439;-83
2021/09/16 03:04:01;;;;;;;4.85;2.40;;;;;;;15.65;100.00;96047.56;5005944;28;20076;-83
2021/09/16 03:06:27;;;;;;;4.50;2.72;;;;;;;15.63;100.00;96052.25;5003063;28;20577;-83
2021/09/16 03:08:53;;;;;;;5.28;2.58;;;;;;;15.75;100.00;96045.41;5006173;28;20064;-83
2021/09/16 03:11:18;;;;;;;4.57;2.78;;;;;;;15.68;100.00;96044.53;5011225;28;20108;-83
2021/09/16 03:13:44;;;;;;;5.60;2.80;;;;;;;15.68;100.00;96041.91;5000456;28;20586;-82
2021/09/16 03:16:10;;;;;;;7.68;3.10;;;;;;;15.76;100.00;96041.75;5010027;28;20033;-83
2021/09/16 03:18:36;;;;;;;5.43;2.95;;;;;;;15.79;100.00;96051.13;5012281;28;20064;-83
2021/09/16 03:21:01;;;;;;;6.18;3.00;;;;;;;15.76;100.00;96047.06;4993817;28;20084;-83
2021/09/16 03:23:27;;;;;;;4.78;3.00;;;;;;;15.76;100.00;96049.72;5012309;28;20781;-83
2021/09/16 03:25:53;;;;;;;5.80;3.10;;;;;;;15.83;100.00;96054.19;5009927;28;20045;-83
2021/09/16 03:28:18;;;;;;;4.90;3.00;;;;;;;15.83;100.00;96051.53;5034507;28;20132;-82
2021/09/16 03:30:44;;;;;;;6.97;3.58;;;;;;;15.83;100.00;96044.44;5007635;28;20026;-82
2021/09/16 03:33:10;;;;;;;5.07;3.15;;;;;;;15.77;100.00;96045.22;5024295;28;20026;-83
2021/09/16 03:35:36;;;;;;;7.25;2.90;;;;;;;15.78;100.00;96046.84;4990697;28;20025;-82
2021/09/16 03:38:01;;;;;;;5.10;2.88;;;;;;;15.77;100.00;96040.72;5000696;28;20799;-83
2021/09/16 03:40:27;;;;;;;4.63;2.85;;;;;;;15.77;100.00;96032.78;5010770;28;20053;-83
2021/09/16 03:42:53;;;;;;;6.50;2.67;;;;;;;15.76;100.00;96038.25;5023545;28;20034;-82
2021/09/16 03:45:19;;;;;;;4.78;2.22;;;;;;;15.79;100.00;96036.06;4991179;28;21249;-83
2021/09/16 03:47:44;;;;;;;6.03;2.55;;;;;;;15.76;100.00;96033.81;4986827;28;20040;-82
2021/09/16 03:50:11;;;;;;;3.13;1.92;;;;;;;15.70;100.00;96039.88;4989361;28;20014;-83
2021/09/16 03:52:37;;;;;;;5.70;2.13;;;;;;;15.70;100.00;96037.22;5008139;28;20032;-82
2021/09/16 03:55:04;;;;;;;4.97;2.17;;;;;;;15.70;100.00;96033.75;5015509;28;20021;-82
2021/09/16 03:57:29;;;;;;;3.67;1.92;;;;;;;15.65;100.00;96031.66;4998334;28;20025;-83
2021/09/16 03:59:55;;;;;;;5.88;2.58;;;;;;;15.66;100.00;96022.75;5007645;28;20112;-83
2021/09/16 04:02:25;;;;;;;4.97;2.22;;;;;;;15.61;100.00;96027.75;5013894;28;20941;-83
2021/09/16 04:04:51;;;;;;;5.13;1.92;;;;;;;15.65;100.00;96036.13;5022444;28;20034;-82
2021/09/16 04:07:17;;;;;;;4.72;2.03;;;;;;;15.65;100.00;96047.56;5006385;28;20390;-83
2021/09/16 04:09:43;;;;;;;6.18;4.15;;;;;;;15.60;100.00;96042.03;5006783;28;20033;-82
2021/09/16 04:12:09;;;;;;;10.90;8.15;;;;;;;15.59;100.00;96040.38;4987066;28;20510;-82
2021/09/16 04:14:35;;;;;;;4.03;2.25;;;;;;;15.63;100.00;96040.84;4989192;28;20022;-83
2021/09/16 04:17:00;;;;;;;6.13;2.58;;;;;;;15.60;100.00;96042.03;5009923;28;20144;-83
2021/09/16 04:19:29;;;;;;;4.85;2.35;;;;;;;15.60;100.00;96041.22;5003314;28;20032;-83
2021/09/16 04:21:55;;;;;;;6.15;2.10;;;;;;;15.61;100.00;96041.00;5027579;28;20021;-83
2021/09/16 04:24:20;;;;;;;5.85;2.17;;;;;;;15.61;100.00;96033.06;5026196;28;20036;-83
2021/09/16 04:26:46;;;;;;;4.38;2.00;;;;;;;15.65;100.00;96038.78;4991135;28;20479;-83
2021/09/16 04:29:12;;;;;;;4.47;2.10;;;;;;;15.59;100.00;96035.06;4989152;28;20040;-83
2021/09/16 04:31:41;;;;;;;3.80;2.13;;;;;;;15.65;100.00;96034.31;5006573;28;20116;-83
2021/09/16 04:34:08;;;;;;;3.63;1.80;;;;;;;15.63;100.00;96036.34;5018338;28;20083;-83
2021/09/16 04:36:34;;;;;;;3.50;2.00;;;;;;;15.62;100.00;96029.38;4994759;28;20025;-82
2021/09/16 04:39:00;;;;;;;3.35;2.25;;;;;;;15.67;100.00;96034.97;5010007;28;20527;-83
2021/09/16 04:41:26;;;;;;;5.28;2.47;;;;;;;15.69;100.00;96040.06;5003606;28;20116;-83
2021/09/16 04:43:52;;;;;;;5.05;2.17;;;;;;;15.69;100.00;96040.91;4989115;28;20108;-83
2021/09/16 04:46:17;;;;;;;4.57;2.28;;;;;;;15.71;100.00;96052.13;4983114;28;20029;-83
2021/09/16 04:48:43;;;;;;;5.50;2.42;;;;;;;15.72;100.00;96048.44;4986146;28;20382;-83
2021/09/16 04:51:09;;;;;;;5.75;2.50;;;;;;;15.74;100.00;96042.97;4999369;28;20022;-80
2021/09/16 04:53:34;;;;;;;5.80;2.05;;;;;;;15.77;100.00;96042.56;5004956;28;20037;-80
2021/09/16 04:56:00;;;;;;;6.28;2.88;;;;;;;15.72;100.00;96045.78;4981428;28;20032;-79
2021/09/16 04:58:26;;;;;;;4.65;2.47;;;;;;;15.77;100.00;96039.91;5002439;28;20030;-80
2021/09/16 05:00:51;;;;;;;3.78;2.33;;;;;;;15.81;100.00;96048.28;4998893;28;20018;-79
2021/09/16 05:03:18;;;;;;;5.15;2.47;;;;;;;15.83;100.00;96051.53;5010200;28;20749;-80
2021/09/16 05:05:44;;;;;;;4.05;2.00;;;;;;;15.82;100.00;96048.09;5012399;28;20033;-80
2021/09/16 05:08:11;;;;;;;4.78;2.55;;;;;;;15.82;100.00;96050.72;5002706;28;20029;-79
2021/09/16 05:10:37;;;;;;;8.30;2.30;;;;;;;15.80;100.00;96055.44;4999554;28;20026;-80
2021/09/16 05:13:02;;;;;;;4.75;2.20;;;;;;;15.85;100.00;96054.84;5004975;28;20034;-79
2021/09/16 05:15:28;;;;;;;5.40;2.38;;;;;;;15.84;100.00;96054.03;4992192;28;20026;-79
2021/09/16 05:17:54;;;;;;;5.18;2.67;;;;;;;15.86;100.00;96064.41;4992998;28;20046;-79
2021/09/16 05:20:20;;;;;;;6.22;2.88;;;;;;;15.86;100.00;96059.97;4990514;28;20044;-80
2021/09/16 05:22:45;;;;;;;4.38;3.00;;;;;;;15.92;100.00;96055.69;4995959;28;20048;-80
2021/09/16 05:25:11;;;;;;;5.65;3.38;;;;;;;15.90;100.00;96060.38;4998150;28;20033;-79
2021/09/16 05:27:37;;;;;;;4.03;2.67;;;;;;;15.90;100.00;96057.72;5005949;28;20058;-79
2021/09/16 05:30:04;;;;;;;7.57;3.17;;;;;;;15.89;100.00;96064.84;4976252;28;20030;-79
2021/09/16 05:32:30;;;;;;;7.03;2.70;;;;;;;15.93;100.00;96067.94;4997097;28;20131;-79
2021/09/16 05:34:56;;;;;;;7.63;3.17;;;;;;;15.92;100.00;96060.97;4993926;28;20108;-79
2021/09/16 05:37:23;;;;;;;6.93;2.88;;;;;;;15.88;100.00;96070.34;4993674;28;20453;-80
2021/09/16 05:39:50;;;;;;;7.22;2.72;;;;;;;15.82;100.00;96071.13;4982535;28;20075;-80
2021/09/16 05:42:16;;;;;;;4.00;2.55;;;;;;;15.88;100.00;96075.66;4993130;28;20038;-79
2021/09/16 05:44:41;;;;;;;7.78;3.17;;;;;;;15.79;100.00;96062.56;4975938;28;20025;-80
2021/09/16 05:47:07;;;;;;;7.40;3.30;;;;;;;15.82;100.00;96069.28;5002342;28;20394;-80
2021/09/16 05:49:33;;;;;;;5.97;3.20;;;;;;;15.78;100.00;96070.72;4977377;28;20021;-80
2021/09/16 05:51:59;;;;;;;7.75;3.72;;;;;;;15.81;100.00;96072.16;4995669;28;20509;-79
2021/09/16 05:54:24;;;;;;;5.40;2.50;;;;;;;15.81;100.00;96070.31;5003534;28;20662;-80
2021/09/16 05:56:50;;;;;;;4.80;2.47;;;;;;;15.82;100.00;96077.25;4989086;28;20036;-80
2021/09/16 05:59:16;;;;;;;4.90;2.55;;;;;;;15.88;100.00;96078.31;4991534;28;20377;-80
2021/09/16 06:01:42;;;;;;;5.13;2.65;;;;;;;15.87;100.00;96076.69;4987935;28;20415;-80
2021/09/16 06:04:08;;;;;;;4.35;2.17;;;;;;;15.89;100.00;96079.94;4990931;28;20037;-80
2021/09/16 06:06:34;;;;;;;4.30;2.47;;;;;;;15.87;100.00;96084.63;5026361;28;20040;-80
2021/09/16 06:09:00;;;;;;;6.13;2.70;;;;;;;15.82;100.00;96085.22;5031451;28;20018;-80
2021/09/16 06:11:25;;;;;;;5.88;2.67;;;;;;;15.91;100.00;96077.91;4995218;28;20041;-80
2021/09/16 06:13:54;;;;;;;7.07;2.53;;;;;;;15.87;100.00;96074.03;4997290;28;20052;-80
2021/09/16 06:16:24;;;;;;;5.95;2.67;;;;;;;15.83;100.00;96078.06;4983836;28;20061;-80
2021/09/16 06:18:50;;;;;;;4.82;2.83;;;;;;;15.84;100.00;96075.22;4991288;28;20477;-80
2021/09/16 06:21:16;;;;;;;4.63;2.55;;;;;;;15.78;100.00;96076.00;4996674;28;20030;-80
2021/09/16 06:23:42;;;;;;;3.83;2.30;;;;;;;15.88;100.00;96080.97;4999968;28;20033;-79
2021/09/16 06:26:08;;;;;;;4.75;2.50;;;;;;;15.84;100.00;96080.53;5002909;28;20068;-79
2021/09/16 06:28:34;;;;;;;4.28;1.98;;;;;;;15.85;100.00;96076.03;4997160;28;20033;-80
2021/09/16 06:31:01;;;;;;;6.22;2.80;;;;;;;15.85;100.00;96081.34;4982081;28;20032;-78
2021/09/16 06:33:26;;;;;;;6.32;2.60;;;;;;;15.90;100.00;96071.00;4990938;28;20025;-77
2021/09/16 06:35:52;;;;;;;6.50;2.60;;;;;;;15.92;100.00;96076.91;4986931;28;20028;-77
2021/09/16 06:38:18;;;;;;;4.93;2.50;;;;;;;15.93;100.00;96074.06;5000703;28;20082;-77
2021/09/16 06:40:43;;;;;;;7.15;2.22;;;;;;;15.99;100.00;96070.59;4980791;28;20014;-77
2021/09/16 06:43:09;;;;;;;7.25;2.50;;;;;;;16.09;100.00;96066.78;4997054;28;20033;-77
2021/09/16 06:45:35;;;;;;;4.57;2.42;;;;;;;16.05;100.00;96076.97;4983384;28;20506;-77
2021/09/16 06:48:00;;;;;;;4.22;2.25;;;;;;;16.16;100.00;96065.81;5005550;28;20640;-77
2021/09/16 06:50:26;;;;;;;5.38;2.58;;;;;;;16.17;100.00;96069.28;4986471;28;20479;-77
2021/09/16 06:52:52;;;;;;;5.15;2.38;;;;;;;16.29;100.00;96072.16;4997085;28;20057;-76
2021/09/16 06:55:18;;;;;;;6.10;2.60;;;;;;;16.42;100.00;96077.50;5000129;28;20030;-77
2021/09/16 06:57:44;;;;;;;5.57;2.25;;;;;;;16.41;100.00;96081.19;5001952;28;20450;-77
2021/09/16 07:00:10;;;;;;;5.53;2.67;;;;;;;16.45;100.00;96077.13;5003231;28;20056;-76
2021/09/16 07:02:36;;;;;;;4.20;2.30;;;;;;;16.53;100.00;96079.56;4975225;28;20682;-76
2021/09/16 07:05:03;;;;;;;6.30;2.85;;;;;;;16.54;100.00;96086.53;5021845;28;20033;-76
2021/09/16 07:07:29;;;;;;;5.45;2.55;;;;;;;16.44;100.00;96086.91;4996615;28;20442;-77
2021/09/16 07:09:55;;;;;;;5.82;2.38;;;;;;;16.41;100.00;96087.31;5027676;28;20026;-77
2021/09/16 07:12:20;;;;;;;5.68;2.53;;;;;;;16.47;100.00;96098.97;5020841;28;20040;-76
2021/09/16 07:14:46;;;;;;;9.75;2.85;;;;;;;16.49;100.00;96094.28;4998832;28;20021;-77
2021/09/16 07:17:12;;;;;;;4.20;2.47;;;;;;;16.52;100.00;96101.03;5001395;28;20044;-77
2021/09/16 07:19:38;;;;;;;5.85;2.33;;;;;;;16.58;100.00;96097.59;4987758;28;20041;-77
2021/09/16 07:22:04;;;;;;;4.07;2.20;;;;;;;16.58;100.00;96098.41;5009303;28;20041;-77
2021/09/16 07:24:30;;;;;;;10.18;7.47;;;;;;;16.55;100.00;96097.97;5006020;28;20029;-76
2021/09/16 07:26:56;;;;;;;6.05;2.88;;;;;;;16.64;100.00;96102.91;4994884;28;20040;-78
2021/09/16 07:29:24;;;;;;;5.25;2.92;;;;;;;16.71;100.00;96109.06;5000333;28;20026;-78
2021/09/16 07:31:54;;;;;;;10.32;3.30;;;;;;;16.71;100.00;96098.44;4978872;28;20030;-78
2021/09/16 07:34:20;;;;;;;7.65;3.33;;;;;;;16.86;100.00;96100.13;4977525;28;20040;-78
2021/09/16 07:36:47;;;;;;;4.47;2.60;;;;;;;17.04;100.00;96100.38;5002763;28;20290;-79
2021/09/16 07:39:15;;;;;;;5.13;2.67;;;;;;;17.11;100.00;96093.22;4987708;28;20022;-78
2021/09/16 07:41:41;;;;;;;4.80;2.80;;;;;;;17.30;100.00;96102.19;4999178;28;20088;-78
2021/09/16 07:44:08;;;;;;;4.70;2.38;;;;;;;17.12;100.00;96102.81;4986061;28;20385;-78
2021/09/16 07:46:34;;;;;;;4.10;2.15;;;;;;;17.12;100.00;96099.34;5011557;28;20120;-79
2021/09/16 07:49:00;;;;;;;4.68;2.40;;;;;;;17.19;100.00;96092.19;5002545;28;20044;-77
2021/09/16 07:51:26;;;;;;;3.28;1.88;;;;;;;17.12;100.00;96094.84;5024403;28;20031;-78
2021/09/16 07:53:53;;;;;;;6.60;3.42;;;;;;;17.15;100.00;96094.44;4990077;28;20029;-77
2021/09/16 07:56:21;;;;;;;5.10;2.20;;;;;;;17.15;100.00;96098.94;4976485;28;20057;-77
2021/09/16 07:58:48;;;;;;;5.68;2.50;;;;;;;17.13;100.00;96095.66;5019270;28;20123;-78
2021/09/16 08:01:14;;;;;;;5.60;2.22;;;;;;;17.22;100.00;96099.75;5011616;28;20108;-78
2021/09/16 08:03:40;;;;;;;5.22;2.30;;;;;;;17.22;100.00;96098.94;4988113;28;20032;-78
2021/09/16 08:06:06;;;;;;;3.08;1.92;;;;;;;17.20;100.00;96097.31;4992545;28;20033;-78
2021/09/16 08:08:32;;;;;;;6.07;2.15;;;;;;;17.25;100.00;96103.84;5004556;28;20060;-78
2021/09/16 08:10:58;;;;;;;8.05;2.40;;;;;;;17.26;100.00;96106.28;5002299;28;20029;-78
2021/09/16 08:13:25;;;;;;;5.43;2.55;;;;;;;17.36;100.00;96105.88;4992549;28;20417;-78
2021/09/16 08:15:52;;;;;;;6.85;2.83;;;;;;;17.37;100.00;96112.81;4990636;28;20036;-77
2021/09/16 08:18:18;;;;;;;5.80;2.35;;;;;;;17.39;100.00;96113.44;4983177;28;20591;-77
2021/09/16 08:20:48;;;;;;;5.80;3.45;;;;;;;17.62;100.00;96113.84;4994076;28;20022;-77
2021/09/16 08:23:18;;;;;;;7.65;3.38;;;;;;;17.54;100.00;96113.22;5008554;28;20056;-77
2021/09/16 08:25:44;;;;;;;7.65;2.60;;;;;;;17.68;100.00;96110.38;5005268;28;20535;-77
2021/09/16 08:28:10;;;;;;;5.90;2.63;;;;;;;17.73;100.00;96114.25;5017837;28;20037;-77
2021/09/16 08:30:36;;;;;;;5.00;2.90;;;;;;;17.85;100.00;96115.28;5002057;28;20076;-77
2021/09/16 08:33:01;;;;;;;9.45;5.65;;;;;;;18.20;100.00;96114.97;4978897;28;20075;-77
2021/09/16 08:35:27;;;;;;;7.78;4.88;;;;;;;18.11;100.00;96114.41;4996094;28;20037;-77
2021/09/16 08:37:53;;;;;;;7.88;4.80;;;;;;;18.34;100.00;96125.38;4982806;28;20026;-77
2021/09/16 08:40:21;;;;;;;4.07;2.40;;;;;;;18.32;100.00;96132.75;5006026;28;20036;-78
2021/09/16 08:42:47;;;;;;;5.88;2.95;;;;;;;18.04;100.00;96130.41;5001681;28;20496;-77
2021/09/16 08:45:16;;;;;;;6.50;2.70;;;;;;;17.85;100.00;96134.72;5008263;28;20053;-77
2021/09/16 08:47:44;;;;;;;5.22;3.20;;;;;;;18.00;100.00;96129.16;4999963;28;20017;-77
2021/09/16 08:50:11;;;;;;;5.72;3.08;;;;;;;17.93;100.00;96131.00;4991175;28;20460;-77
2021/09/16 08:52:42;;;;;;;4.78;2.85;;;;;;;17.97;100.00;96140.22;4995077;28;20029;-77
2021/09/16 08:55:12;;;;;;;5.78;3.15;;;;;;;17.87;100.00;96142.47;4983909;28;20033;-77
2021/09/16 08:57:43;;;;;;;4.63;2.63;;;;;;;17.88;100.00;96136.16;4984477;28;20029;-77
2021/09/16 09:00:22;;;;;;;4.65;3.10;;;;;;;17.80;100.00;96139.81;5009248;28;20388;-77
2021/09/16 09:02:50;;;;;;;4.53;2.60;;;;;;;17.82;100.00;96136.97;5004478;28;20118;-77
2021/09/16 09:05:16;;;;;;;4.82;2.47;;;;;;;17.85;100.00;96145.38;4994750;28;20571;-77
2021/09/16 09:07:49;;;;;;;6.72;2.72;;;;;;;17.87;100.00;96145.13;4986051;28;20510;-77
2021/09/16 09:10:39;;;;;;;4.72;2.50;;;;;;;17.84;100.00;96143.72;4990564;28;20567;-77
2021/09/16 09:13:10;;;;;;;4.93;2.60;;;;;;;17.79;100.00;96146.19;5019011;28;20072;-77
2021/09/16 09:15:39;;;;;;;5.38;2.85;;;;;;;17.70;100.00;96142.06;5019317;28;20672;-76
2021/09/16 09:18:08;;;;;;;4.82;3.05;;;;;;;17.91;100.00;96149.03;5025489;28;20110;-76
2021/09/16 09:20:53;;;;;;;4.95;2.92;;;;;;;17.84;100.00;96151.72;4983506;28;20460;-77
2021/09/16 09:23:45;;;;;;;5.25;2.70;;;;;;;18.03;100.00;96144.72;5010086;28;20064;-77
2021/09/16 09:26:27;;;;;;;5.90;2.70;;;;;;;17.92;100.00;96148.00;4994259;28;20026;-76
2021/09/16 09:29:06;;;;;;;4.78;2.53;;;;;;;17.97;100.00;96140.22;5026589;28;20037;-76
2021/09/16 09:31:32;;;;;;;4.47;2.97;;;;;;;17.71;100.00;96145.56;4981767;28;20022;-77
2021/09/16 09:33:57;;;;;;;5.55;3.00;;;;;;;17.85;100.00;96147.22;4998166;28;20091;-77
2021/09/16 09:36:23;;;;;;;12.20;3.53;;;;;;;17.89;100.00;96151.09;4995012;28;20125;-77
2021/09/16 09:38:56;;;;;;;5.55;2.28;;;;;;;17.72;100.00;96149.84;4994616;28;20032;-77
2021/09/16 09:41:34;;;;;;;3.47;2.20;;;;;;;17.79;100.00;96148.03;4986072;28;20388;-77
2021/09/16 09:44:07;;;;;;;3.42;2.13;;;;;;;17.71;100.00;96149.03;4979508;28;20045;-77
2021/09/16 09:46:48;;;;;;;4.30;1.52;;;;;;;17.70;100.00;96147.38;4976037;28;20116;-77
2021/09/16 09:49:23;;;;;;;3.47;1.90;;;;;;;17.54;100.00;96145.97;4982260;28;20037;-77
2021/09/16 09:51:54;;;;;;;5.88;2.95;;;;;;;17.65;100.00;96148.00;5029150;28;20522;-78
2021/09/16 09:54:27;;;;;;;8.30;2.50;;;;;;;17.63;100.00;96152.69;5004600;28;20037;-77
2021/09/16 09:57:12;;;;;;;4.03;1.70;;;;;;;17.66;100.00;96148.81;5004381;28;20499;-76
2021/09/16 10:00:05;;;;;;;12.63;10.13;;;;;;;17.43;100.00;96144.72;4993814;28;20034;-77
2021/09/16 10:02:52;;;;;;;8.70;6.55;;;;;;;17.61;100.00;96145.97;5018536;28;20044;-76
2021/09/16 10:05:19;;;;;;;9.50;5.80;;;;;;;17.46;100.00;96148.00;4982156;28;20030;-76
2021/09/16 10:07:44;;;;;;;8.82;6.78;;;;;;;17.46;100.00;96145.34;4984230;28;20021;-76
2021/09/16 10:10:12;;;;;;;2.85;1.30;;;;;;;17.52;100.00;96148.00;5001840;28;20510;-76
2021/09/16 10:12:40;;;;;;;3.92;1.48;;;;;;;17.48;100.00;96152.09;4986932;28;20030;-76
2021/09/16 10:15:08;;;;;;;1.80;0.98;;;;;;;17.71;100.00;96148.22;4994891;28;20071;-76
2021/09/16 10:17:35;;;;;;;2.28;1.15;;;;;;;17.48;100.00;96154.75;4981858;28;20030;-76
2021/09/16 10:20:02;;;;;;;1.77;1.20;;;;;;;17.19;100.00;96154.13;4998926;28;20539;-76
2021/09/16 10:22:28;;;;;;;2.38;1.10;;;;;;;17.11;100.00;96150.84;4998541;28;20032;-75
2021/09/16 10:24:54;;;;;;;1.80;1.00;;;;;;;17.00;100.00;96152.28;4991929;28;20033;-75
2021/09/16 10:27:27;;;;;;;3.40;1.27;;;;;;;17.02;100.00;96155.53;5010570;28;20491;-76
2021/09/16 10:29:53;;;;;;;3.20;1.40;;;;;;;17.00;100.00;96151.44;5018696;28;20041;-76
2021/09/16 10:32:19;;;;;;;1.77;1.02;;;;;;;17.14;100.00;96155.75;4998036;28;20026;-76
2021/09/16 10:34:47;;;;;;;2.35;1.40;;;;;;;17.09;100.00;96156.34;4998945;28;20124;-76
2021/09/16 10:37:19;;;;;;;2.42;1.50;;;;;;;17.16;100.00;96154.53;4982395;28;20521;-76
2021/09/16 10:39:47;;;;;;;4.63;1.95;;;;;;;16.99;100.00;96150.63;4989828;28;20034;-76
2021/09/16 10:42:14;;;;;;;2.88;1.83;;;;;;;17.08;100.00;96156.56;4995840;28;20025;-76
2021/09/16 10:44:42;;;;;;;2.50;1.80;;;;;;;16.95;100.00;96152.84;5001499;28;20476;-76
2021/09/16 10:47:21;;;;;;;3.92;2.08;;;;;;;16.92;100.00;96157.75;5015664;28;20104;-76
2021/09/16 10:49:49;;;;;;;2.53;1.55;;;;;;;17.09;100.00;96152.88;4994889;28;20120;-76
2021/09/16 10:52:17;;;;;;;3.53;2.20;;;;;;;17.33;100.00;96146.97;4995948;28;20025;-76
2021/09/16 10:54:54;;;;;;;5.90;2.53;;;;;;;17.66;100.00;96160.28;5019848;28;20570;-76
2021/09/16 10:57:28;;;;;;;3.10;1.88;;;;;;;17.76;100.00;96153.72;4999965;28;20463;-76
2021/09/16 10:59:54;;;;;;;3.35;2.22;;;;;;;18.03;100.00;96157.19;4992208;28;20488;-76
2021/09/16 11:02:47;;;;;;;3.13;2.20;;;;;;;18.08;100.00;96147.56;4998922;28;20032;-76
2021/09/16 11:05:18;;;;;;;8.27;2.42;;;;;;;18.08;100.00;96144.91;4994889;28;20128;-77
2021/09/16 11:07:45;;;;;;;3.03;2.20;;;;;;;18.14;100.00;96146.75;4998077;28;20405;-77
2021/09/16 11:10:21;;;;;;;3.58;1.80;;;;;;;18.24;100.00;96145.47;4989408;28;20022;-76
2021/09/16 11:12:55;;;;;;;3.78;2.35;;;;;;;17.87;100.00;96153.97;4994141;28;20029;-76
2021/09/16 11:15:24;;;;;;;5.70;4.07;;;;;;;17.94;100.00;96161.94;4996030;28;20117;-76
2021/09/16 11:17:50;;;;;;;4.72;2.90;;;;;;;18.07;100.00;96159.22;4996285;28;20103;-76
2021/09/16 11:20:19;;;;;;;4.68;2.30;;;;;;;17.71;100.00;96165.00;5007020;28;20037;-76
2021/09/16 11:22:50;;;;;;;4.90;3.08;;;;;;;17.84;100.00;96166.84;4997458;28;20618;-76
2021/09/16 11:25:15;;;;;;;4.45;2.10;;;;;;;17.74;100.00;96164.59;4996565;28;20038;-76
2021/09/16 11:27:41;;;;;;;7.50;4.05;;;;;;;17.65;100.00;96174.59;5002695;28;20032;-76
2021/09/16 11:30:19;;;;;;;5.30;3.40;;;;;;;17.52;100.00;96171.13;5001058;28;20034;-76